Time;durP1;ratioP1;P1;durP2;ratioP2;P2;SDS_P1;SDS_P2;PMS_P1;PMS_P2;Temp;Humidity;BMP_temperature;BMP_pressure;BME280_temperature;BME280_humidity;BME280_pressure;Samples;Min_cycle;Max_cycle;Signal;HPM_P1;HPM_P2
2021/12/05 00:22:57;;;;;;;18.35;4.78;;;;;;;0.94;100.00;94548.19;20535500;28;20574;-74
2021/12/05 01:04:07;;;;;;;25.08;4.50;;;;;;;0.77;100.00;94532.09;20548647;28;20228;-73
2021/12/05 02:36:27;;;;;;;14.75;3.22;;;;;;;0.49;100.00;94487.41;20558035;28;20050;-74
2021/12/05 02:46:28;;;;;;;8.65;3.60;;;;;;;0.48;100.00;94495.47;20556018;28;20629;-73
2021/12/05 02:56:32;;;;;;;19.88;4.47;;;;;;;0.53;100.00;94501.44;20578825;28;20038;-73
2021/12/05 03:06:33;;;;;;;16.77;4.53;;;;;;;0.48;100.00;94493.63;20549492;28;20660;-73
2021/12/05 03:16:36;;;;;;;16.30;4.78;;;;;;;0.46;100.00;94485.31;20570788;28;20082;-74
2021/12/05 03:26:39;;;;;;;16.67;3.55;;;;;;;0.53;100.00;94475.41;20556238;28;20434;-74
2021/12/05 03:36:42;;;;;;;8.52;4.20;;;;;;;0.50;100.00;94475.16;20568300;28;20040;-74
2021/12/05 03:46:43;;;;;;;9.82;3.63;;;;;;;0.46;100.00;94482.69;20564966;28;20149;-73
2021/12/05 03:56:44;;;;;;;8.48;3.25;;;;;;;0.50;100.00;94475.16;20552505;28;20046;-73
2021/12/05 04:06:46;;;;;;;7.00;2.85;;;;;;;0.46;100.00;94476.72;20543083;28;20112;-74
2021/12/05 04:16:47;;;;;;;14.63;4.82;;;;;;;0.39;100.00;94474.41;20534576;28;20442;-73
2021/12/05 04:26:47;;;;;;;8.95;3.83;;;;;;;0.32;100.00;94476.50;20507966;28;20046;-73
2021/12/05 04:36:48;;;;;;;12.55;4.28;;;;;;;0.32;100.00;94481.72;20490475;28;20051;-73
2021/12/05 04:46:49;;;;;;;14.45;4.22;;;;;;;0.32;100.00;94463.47;20518723;28;20057;-73
2021/12/05 04:56:50;;;;;;;8.15;3.83;;;;;;;0.32;100.00;94453.84;20519108;28;20082;-73
2021/12/05 05:06:52;;;;;;;7.75;3.78;;;;;;;0.36;100.00;94451.47;20494766;28;20055;-73
2021/12/05 05:16:53;;;;;;;12.30;3.75;;;;;;;0.43;100.00;94441.56;20509077;28;20081;-74
2021/12/05 05:47:52;;;;;;;7.50;4.05;;;;;;;0.45;100.00;94443.88;20523639;28;20047;-73
2021/12/05 06:07:53;;;;;;;11.63;4.90;;;;;;;0.40;100.00;94448.06;20499939;28;20677;-74
2021/12/05 06:17:54;;;;;;;15.68;5.63;;;;;;;0.34;100.00;94449.13;20521338;28;20096;-73
2021/12/05 06:28:04;;;;;;;16.92;4.63;;;;;;;0.30;100.00;94457.75;20514334;28;20376;-73
2021/12/05 06:38:10;;;;;;;15.32;5.15;;;;;;;0.30;100.00;94466.34;20521307;28;20045;-73
2021/12/05 06:48:10;;;;;;;9.47;3.60;;;;;;;0.35;100.00;94471.53;20531921;28;20448;-73
2021/12/05 06:58:11;;;;;;;8.40;4.00;;;;;;;0.25;100.00;94473.41;20506481;28;20042;-73
2021/12/05 07:08:14;;;;;;;16.17;4.00;;;;;;;0.05;100.00;94485.41;20513879;28;20109;-73
2021/12/05 07:49:10;;;;;;;9.45;3.38;;;;;;;0.08;100.00;94510.13;20591103;28;20051;-73
2021/12/05 07:59:37;;;;;;;6.38;3.03;;;;;;;0.18;100.00;94515.31;20602805;28;20038;-73
2021/12/05 08:19:57;;;;;;;5.03;2.05;;;;;;;0.51;100.00;94523.56;20601202;28;20493;-74
2021/12/05 08:30:05;;;;;;;4.65;1.92;;;;;;;0.60;100.00;94517.56;20594720;28;20044;-74
2021/12/05 08:41:30;;;;;;;8.57;2.50;;;;;;;0.51;100.00;94534.78;20603315;28;20380;-73
2021/12/05 10:34:03;;;;;;;4.28;1.48;;;;;;;2.89;100.00;94570.19;20612499;28;20426;-73
2021/12/05 10:44:08;;;;;;;6.75;2.28;;;;;;;2.39;100.00;94572.25;20572565;28;20031;-73
2021/12/05 10:54:11;;;;;;;8.85;2.40;;;;;;;2.06;100.00;94577.25;20586018;28;20103;-72
2021/12/05 11:04:35;;;;;;;8.57;2.20;;;;;;;1.94;100.00;94572.41;20536221;28;20452;-74
2021/12/05 11:14:45;;;;;;;13.52;2.67;;;;;;;1.67;100.00;94572.81;20542944;28;20046;-73
2021/12/05 11:24:59;;;;;;;10.02;2.55;;;;;;;1.91;100.00;94570.31;20521559;28;21463;-74
2021/12/05 11:35:09;;;;;;;7.88;2.22;;;;;;;1.89;100.00;94574.25;20538050;28;20054;-72
2021/12/05 11:45:09;;;;;;;8.57;2.58;;;;;;;1.74;100.00;94583.75;20530562;28;20740;-73
2021/12/05 11:55:27;;;;;;;6.30;2.80;;;;;;;1.97;100.00;94589.34;20523537;28;20167;-72
2021/12/05 12:05:35;;;;;;;7.13;2.53;;;;;;;2.18;100.00;94587.34;20542203;28;20604;-73
2021/12/05 12:15:38;;;;;;;6.55;2.17;;;;;;;2.17;100.00;94588.41;20520649;28;20605;-73
2021/12/05 12:25:40;;;;;;;6.60;2.58;;;;;;;2.13;100.00;94593.41;20535167;28;20041;-74
2021/12/05 12:35:44;;;;;;;6.00;2.10;;;;;;;1.98;100.00;94588.28;20510282;28;20051;-73
2021/12/05 12:45:44;;;;;;;4.63;2.05;;;;;;;1.85;100.00;94610.56;20535159;28;20137;-72
2021/12/05 12:56:07;;;;;;;8.98;3.28;;;;;;;1.80;100.00;94624.44;20534059;28;20363;-73
2021/12/05 13:16:36;;;;;;;11.27;3.03;;;;;;;1.59;100.00;94626.41;20591468;28;20043;-73
2021/12/05 13:26:39;;;;;;;7.80;3.40;;;;;;;1.74;100.00;94624.75;20572718;28;20070;-73
2021/12/05 13:36:40;;;;;;;4.95;1.73;;;;;;;1.96;100.00;94627.75;20603668;28;20339;-73
2021/12/05 13:46:43;;;;;;;8.77;4.35;;;;;;;1.88;100.00;94638.75;20621793;28;21492;-73
2021/12/05 13:56:44;;;;;;;5.90;1.65;;;;;;;1.71;100.00;94646.94;20609396;28;20463;-73
2021/12/05 14:07:02;;;;;;;6.43;2.38;;;;;;;1.85;100.00;94659.41;20607767;28;20042;-73
2021/12/05 14:17:24;;;;;;;6.78;1.60;;;;;;;1.71;100.00;94683.47;20598854;28;20070;-73
2021/12/05 14:27:32;;;;;;;5.57;1.63;;;;;;;1.56;100.00;94704.44;20617875;28;20193;-73
2021/12/05 14:37:34;;;;;;;4.78;1.77;;;;;;;1.45;100.00;94702.88;20613651;28;20065;-73
2021/12/05 14:47:36;;;;;;;3.83;1.60;;;;;;;1.23;100.00;94716.25;20597620;28;20062;-73
2021/12/05 14:57:43;;;;;;;7.15;2.00;;;;;;;1.12;100.00;94731.16;20580824;28;20038;-73
2021/12/05 15:07:44;;;;;;;5.82;1.48;;;;;;;1.18;100.00;94745.75;20595165;28;20065;-73
2021/12/05 15:17:45;;;;;;;6.88;1.98;;;;;;;1.16;100.00;94766.88;20574911;28;20046;-72
2021/12/05 15:27:47;;;;;;;6.68;1.92;;;;;;;1.08;100.00;94771.84;20587615;28;20817;-72
2021/12/05 15:37:54;;;;;;;5.75;1.95;;;;;;;0.95;100.00;94786.19;20590072;28;20494;-72
2021/12/05 15:47:54;;;;;;;;;;;;;;;0.57;100.00;94799.47;20626308;28;20096;-72
2021/12/05 15:58:00;;;;;;;4.13;1.92;;;;;;;0.62;100.00;94811.72;20577161;28;19922;-73
2021/12/05 16:08:09;;;;;;;;;;;;;;;0.62;100.00;94826.56;20577063;28;20164;-73
2021/12/05 16:18:17;;;;;;;5.72;2.05;;;;;;;0.56;100.00;94825.78;20758229;27;20393;-72
2021/12/05 16:28:25;;;;;;;7.00;2.33;;;;;;;0.33;100.00;94842.66;20550082;28;20159;-73
2021/12/05 16:38:37;;;;;;;8.82;2.63;;;;;;;0.27;100.00;94862.69;20540215;28;20184;-72
2021/12/05 16:48:41;;;;;;;7.10;2.95;;;;;;;0.18;100.00;94867.59;20567317;28;20050;-72
2021/12/05 16:58:44;;;;;;;5.57;2.38;;;;;;;0.30;100.00;94879.63;20544495;28;20451;-72
2021/12/05 17:08:45;;;;;;;7.40;2.50;;;;;;;0.25;100.00;94897.84;20550839;28;20047;-72
2021/12/05 17:19:02;;;;;;;16.65;8.90;;;;;;;0.36;100.00;94915.06;20557170;28;20061;-72
2021/12/05 17:29:12;;;;;;;14.48;7.60;;;;;;;0.34;100.00;94923.13;20503651;28;20039;-72
2021/12/05 17:49:52;;;;;;;12.25;7.15;;;;;;;0.50;100.00;94946.63;20460373;28;20074;-72
2021/12/05 18:20:25;;;;;;;12.95;6.97;;;;;;;0.58;100.00;94986.00;20491169;28;20071;-73
2021/12/05 18:30:27;;;;;;;10.27;6.57;;;;;;;0.54;100.00;95005.78;20504876;28;20055;-72
2021/12/05 18:50:52;;;;;;;20.45;11.05;;;;;;;0.59;100.00;95031.06;20494018;28;20050;-71
2021/12/05 19:21:37;;;;;;;19.23;10.93;;;;;;;0.70;100.00;95060.59;20586978;28;20409;-71
2021/12/05 19:31:37;;;;;;;17.25;10.25;;;;;;;0.64;100.00;95069.44;20643970;28;20050;-71
2021/12/05 19:41:38;;;;;;;15.68;9.68;;;;;;;0.62;100.00;95089.75;20637932;28;20256;-71
2021/12/05 19:51:38;;;;;;;19.55;12.43;;;;;;;0.34;100.00;95089.81;20633321;28;20421;-71
2021/12/05 20:01:39;;;;;;;16.65;9.23;;;;;;;0.33;100.00;95092.69;20636195;28;20612;-71
2021/12/05 20:11:42;;;;;;;22.98;13.15;;;;;;;0.31;100.00;95097.34;20647315;28;20069;-72
2021/12/05 20:21:46;;;;;;;22.05;12.13;;;;;;;0.31;100.00;95105.16;20646191;28;20050;-72
2021/12/05 20:31:47;;;;;;;19.08;10.98;;;;;;;0.37;100.00;95111.97;20650523;28;20612;-71
2021/12/05 20:41:47;;;;;;;27.08;15.80;;;;;;;0.35;100.00;95122.66;20664984;28;20436;-71
2021/12/05 20:51:48;;;;;;;43.80;16.30;;;;;;;0.36;100.00;95136.44;20630943;28;20041;-71
2021/12/05 21:01:48;;;;;;;30.63;16.73;;;;;;;0.37;100.00;95161.47;20638134;28;20848;-72
2021/12/05 21:11:53;;;;;;;30.83;17.15;;;;;;;0.49;100.00;95171.69;20571099;28;20107;-72
2021/12/05 21:21:53;;;;;;;25.73;14.45;;;;;;;0.51;100.00;95193.09;20608383;28;20045;-72
2021/12/05 21:31:53;;;;;;;21.52;10.60;;;;;;;0.62;100.00;95209.59;20609398;28;20245;-71
2021/12/05 21:41:54;;;;;;;19.88;11.68;;;;;;;0.57;100.00;95205.94;20639072;28;20045;-72
2021/12/05 21:51:54;;;;;;;22.77;11.32;;;;;;;0.59;100.00;95213.47;20661768;28;20058;-72
2021/12/05 22:01:54;;;;;;;20.33;10.10;;;;;;;0.66;100.00;95227.09;20588408;28;20335;-71
2021/12/05 22:11:55;;;;;;;18.73;9.95;;;;;;;0.66;100.00;95239.34;20614195;28;20463;-71
2021/12/05 22:21:55;;;;;;;18.45;9.73;;;;;;;0.65;100.00;95250.78;20668175;28;20133;-71
2021/12/05 22:31:56;;;;;;;19.75;10.07;;;;;;;0.65;100.00;95276.84;20635253;28;20179;-71
2021/12/05 22:41:58;;;;;;;19.10;10.60;;;;;;;0.66;100.00;95294.06;20616214;28;20454;-72
2021/12/05 22:51:58;;;;;;;17.38;9.48;;;;;;;0.73;100.00;95299.84;20592348;28;20045;-71
2021/12/05 23:02:00;;;;;;;20.10;10.38;;;;;;;0.62;100.00;95326.88;20595405;28;20129;-72
2021/12/05 23:12:00;;;;;;;16.27;8.43;;;;;;;0.74;100.00;95337.94;20596649;28;20630;-71
2021/12/05 23:22:05;;;;;;;14.45;7.72;;;;;;;0.77;100.00;95346.03;20609937;28;20567;-72
2021/12/05 23:32:10;;;;;;;18.88;9.18;;;;;;;0.80;100.00;95349.97;20632305;28;20073;-71
2021/12/05 23:42:11;;;;;;;23.45;9.35;;;;;;;0.63;100.00;95359.69;20605804;28;20514;-72
2021/12/05 23:52:12;;;;;;;19.27;10.95;;;;;;;0.67;100.00;95376.41;20622223;28;20056;-71
